Alma Lake, Indiana
Current Conditions -  °F | °C
As of 4:53 PM on Monday 22 Dec 2014 (Local Time) from KHUF Reporting Station
Light Rain Light Rain  
Wind Chill: 41°   Ceiling: 5500
Heat Index: 46°   Visibility: 7mi
Dew Point: 42°   Wind: 10mph
Humidity: 86%   Direction: 120°ESE
Pressure: 29.69"   Gusts: NA
Location:  39.5158°N, 87.1262°W
Report Text: KHUF 222153Z 12009KT 7SM -RA SCT022 OVC055 08/06 A2969 RMK AO2 SLP058 P0003 T00780056
Loading
Personal Weather Stations






























Interactive Weather Map New forecast layout! Learn more

10-Day Weather Forecast

Advertisements
Track Severe Weather on mobile